San Antonio, Valles Caldera, New Mexico Weather observations

Data are for 10 minute period ending at time listed.
 Day   Time   Solar   Ave.   Ave.  Ave.  Vector  Max.   Baro.   Total    
  of    of     Rad.   Air    Rel.  Wind   Wind   Wind  Press.  Precip.   
Year   Day            Temp.  Hum.  Speed  Dir.   Gust                    
2016   (MST)  Kw/m2    F      %     mph   deg.    mph    mb.     in.     
-------------------------------------------------------------------------
 125    5:30   100.00  99999.0   99999  99999.0   99999   99999.0   99999.0   99999.00 
 125    5:40   100.00  99999.0   99999  99999.0   99999   99999.0   99999.0   99999.00 
 125    5:50   100.00  99999.0   99999  99999.0   99999   99999.0   99999.0   99999.00 
 125    6:00   100.00  99999.0   99999  99999.0   99999   99999.0   99999.0   99999.00 
 125    6:10   100.00  99999.0   99999  99999.0   99999   99999.0   99999.0   99999.00 
 125    6:20   100.00  99999.0   99999  99999.0   99999   99999.0   99999.0   99999.00 
 125    6:30   100.00  99999.0   99999  99999.0   99999   99999.0   99999.0   99999.00 
 125    6:40   100.00  99999.0   99999  99999.0   99999   99999.0   99999.0   99999.00 
 125    6:50   100.00  99999.0   99999  99999.0   99999   99999.0   99999.0   99999.00 
 125    7:00   100.00  99999.0   99999  99999.0   99999   99999.0   99999.0   99999.00 
 125    7:10   100.00  99999.0   99999  99999.0   99999   99999.0   99999.0   99999.00 
 125    7:20   100.00  99999.0   99999  99999.0   99999   99999.0   99999.0   99999.00 
 125    7:30   100.00  99999.0   99999  99999.0   99999   99999.0   99999.0   99999.00 
 125    7:40   100.00  99999.0   99999  99999.0   99999   99999.0   99999.0   99999.00 
 125    7:50   100.00  99999.0   99999  99999.0   99999   99999.0   99999.0   99999.00 
 125    8:00   100.00  99999.0   99999  99999.0   99999   99999.0   99999.0   99999.00 
 125    8:10   100.00  99999.0   99999  99999.0   99999   99999.0   99999.0   99999.00 
 125    8:20   100.00  99999.0   99999  99999.0   99999   99999.0   99999.0   99999.00 
 125    8:30   100.00  99999.0   99999  99999.0   99999   99999.0   99999.0   99999.00 
 125    8:40   100.00  99999.0   99999  99999.0   99999   99999.0   99999.0   99999.00 
 125    8:50   100.00  99999.0   99999  99999.0   99999   99999.0   99999.0   99999.00 
 125    9:00   100.00  99999.0   99999  99999.0   99999   99999.0   99999.0   99999.00 
 125    9:10   100.00  99999.0   99999  99999.0   99999   99999.0   99999.0   99999.00 
 125    9:20   100.00  99999.0   99999  99999.0   99999   99999.0   99999.0   99999.00 
 125    9:30   100.00  99999.0   99999  99999.0   99999   99999.0   99999.0   99999.00 
 125    9:40   100.00  99999.0   99999  99999.0   99999   99999.0   99999.0   99999.00 
 125    9:50   100.00  99999.0   99999  99999.0   99999   99999.0   99999.0   99999.00 
 125   10:00   100.00  99999.0   99999  99999.0   99999   99999.0   99999.0   99999.00 
 125   10:10   100.00  99999.0   99999  99999.0   99999   99999.0   99999.0   99999.00 
 125   10:20   100.00  99999.0   99999  99999.0   99999   99999.0   99999.0   99999.00 
 125   10:30   100.00  99999.0   99999  99999.0   99999   99999.0   99999.0   99999.00 
 125   10:40   100.00  99999.0   99999  99999.0   99999   99999.0   99999.0   99999.00 
 125   10:50   100.00  99999.0   99999  99999.0   99999   99999.0   99999.0   99999.00 
 125   11:00   100.00  99999.0   99999  99999.0   99999   99999.0   99999.0   99999.00 
 125   11:10   100.00  99999.0   99999  99999.0   99999   99999.0   99999.0   99999.00 
 125   11:20   100.00  99999.0   99999  99999.0   99999   99999.0   99999.0   99999.00 
 125   11:30   100.00  99999.0   99999  99999.0   99999   99999.0   99999.0   99999.00 
 125   11:40   100.00  99999.0   99999  99999.0   99999   99999.0   99999.0   99999.00 
 125   11:50   100.00  99999.0   99999  99999.0   99999   99999.0   99999.0   99999.00 
 125   12:00   100.00  99999.0   99999  99999.0   99999   99999.0   99999.0   99999.00 
 125   12:10   100.00  99999.0   99999  99999.0   99999   99999.0   99999.0   99999.00 
 125   12:20   100.00  99999.0   99999  99999.0   99999   99999.0   99999.0   99999.00 
 125   12:30   100.00  99999.0   99999  99999.0   99999   99999.0   99999.0   99999.00 
 125   12:40   100.00  99999.0   99999  99999.0   99999   99999.0   99999.0   99999.00 
 125   12:50   100.00  99999.0   99999  99999.0   99999   99999.0   99999.0   99999.00 
 125   13:00   100.00  99999.0   99999  99999.0   99999   99999.0   99999.0   99999.00 
 125   13:10   100.00  99999.0   99999  99999.0   99999   99999.0   99999.0   99999.00 
 125   13:20   100.00  99999.0   99999  99999.0   99999   99999.0   99999.0   99999.00 
 125   13:30   100.00  99999.0   99999  99999.0   99999   99999.0   99999.0   99999.00 
 125   13:40   100.00  99999.0   99999  99999.0   99999   99999.0   99999.0   99999.00 
 125   13:50   100.00  99999.0   99999  99999.0   99999   99999.0   99999.0   99999.00 
 125   14:00   100.00  99999.0   99999  99999.0   99999   99999.0   99999.0   99999.00 
 125   14:10   100.00  99999.0   99999  99999.0   99999   99999.0   99999.0   99999.00 
 125   14:20   100.00  99999.0   99999  99999.0   99999   99999.0   99999.0   99999.00 
 125   14:30   100.00  99999.0   99999  99999.0   99999   99999.0   99999.0   99999.00 
 125   14:40   100.00  99999.0   99999  99999.0   99999   99999.0   99999.0   99999.00 
 125   14:50   100.00  99999.0   99999  99999.0   99999   99999.0   99999.0   99999.00 
 125   15:00   100.00  99999.0   99999  99999.0   99999   99999.0   99999.0   99999.00 
 125   15:10   100.00  99999.0   99999  99999.0   99999   99999.0   99999.0   99999.00 
 125   15:20   100.00  99999.0   99999  99999.0   99999   99999.0   99999.0   99999.00 
 125   15:30   100.00  99999.0   99999  99999.0   99999   99999.0   99999.0   99999.00 
 125   15:40   100.00  99999.0   99999  99999.0   99999   99999.0   99999.0   99999.00 
 125   15:50   100.00  99999.0   99999  99999.0   99999   99999.0   99999.0   99999.00 
 125   16:00   100.00  99999.0   99999  99999.0   99999   99999.0   99999.0   99999.00 
 125   16:10   100.00  99999.0   99999  99999.0   99999   99999.0   99999.0   99999.00 
 125   16:20   100.00  99999.0   99999  99999.0   99999   99999.0   99999.0   99999.00 
 125   16:30   0.50   62.8    21    4.0    74     7.2   99999.0    0.00 
 125   16:40   0.20   62.2    19    2.6   174     6.6   99999.0    0.00 
 125   16:50   0.30   61.6    20    5.0   214    15.5   99999.0    0.00 
 125   17:00   0.28   61.8    19    2.8   196     4.8   99999.0    0.00 
 125   17:10   0.34   62.5    19    6.1   201    10.8   99999.0    0.00 
 125   17:20   100.00  99999.0   99999  99999.0   99999   99999.0   99999.0   99999.00 
 125   17:30   0.30   62.2    19    6.3   188    11.3   99999.0    0.00 
 125   17:40   0.25   61.1    20    6.9   217    10.2   99999.0    0.00 
 125   17:50   0.21   60.6    20    7.3   218    10.8   99999.0    0.00 
 125   18:00   0.18   59.8    20    6.0   212     9.6   99999.0    0.00 
 125   18:10   0.15   58.7    21    6.3   205     9.6   99999.0    0.00 
 125   18:20   0.11   58.2    22    5.6   221     9.6   99999.0    0.00 
 125   18:30   0.07   57.7    22    3.6   235     6.6   99999.0    0.00 
 125   18:40   0.03   57.0    24    2.4   293     4.2   99999.0    0.00 
 125   18:50   0.01   54.2    27    2.8    36     5.4   99999.0    0.00 
 125   19:00   0.01   51.5    31    5.0    38     6.0   99999.0    0.00 
 125   19:10   0.00   49.7    35    5.0    28     6.6   99999.0    0.00 
 125   19:20   0.00   48.7    37    4.2    43     6.6   99999.0    0.00 
 125   19:30   0.00   47.5    40    3.6    27     4.8   99999.0    0.00 
 125   19:40   0.00   46.0    43    4.0    32     6.0   99999.0    0.00 
 125   19:50   0.00   45.0    44    2.8    32     5.4   99999.0    0.00 
 125   20:00   0.00   44.4    44    2.6    38     5.4   99999.0    0.00 
 125   20:10   0.00   42.4    48    3.3    16     5.4   99999.0    0.00 
 125   20:20   0.00   41.0    50    2.0    31     4.8   99999.0    0.00 
 125   20:30   0.00   41.6    47    2.2    18     3.6   99999.0    0.00 
 125   20:40   0.00   41.3    49    1.9    36     4.2   99999.0    0.00 
 125   20:50   0.00   40.8    48    1.2    57     3.0   99999.0    0.00 
 125   21:00   0.00   39.9    50    1.6    37     2.4   99999.0    0.00 
 125   21:10   0.00   39.6    50    1.4    29     3.0   99999.0    0.00 
 125   21:20   0.00   38.6    52    1.8    22     3.6   99999.0    0.00 
 125   21:30   0.00   37.4    55    1.1    91     2.4   99999.0    0.00 
 125   21:40   0.00   36.4    56    0.6    22     3.0   99999.0    0.00 
 125   21:50   0.00   35.7    58    1.3    18     2.4   99999.0    0.00 
 125   22:00   0.00   35.9    57    0.7    82     2.4   99999.0    0.00 
 125   22:10   0.00   34.8    60    1.9    21     4.8   99999.0    0.00 
 125   22:20   0.00   33.4    65    1.2   307     3.6   99999.0    0.00 
 125   22:30   0.00   33.0    64    0.5    38     1.8   99999.0    0.00 
 125   22:40   0.00   33.0    64    0.7    20     1.8   99999.0    0.00 
 125   22:50   0.00   33.0    63    1.1    36     3.0   99999.0    0.00 
 125   23:00   0.00   32.7    64    1.1   349     3.0   99999.0    0.00 
 125   23:10   0.00   31.3    69    1.5    12     3.6   99999.0    0.00 
 125   23:20   0.00   30.7    70    0.6    98     1.8   99999.0    0.00 
 125   23:30   0.00   30.6    70    0.4   128     1.8   99999.0    0.00 
 125   23:40   0.00   30.4    70    1.7    38     2.4   99999.0    0.00 
 125   23:50   0.00   30.6    68    1.7    71     3.0   99999.0    0.00 
 126    0:00   0.00   29.6    73    2.7    27     4.8   99999.0    0.00 
 126    0:10   0.00   28.0    77    2.9   268     6.0   99999.0    0.00 
 126    0:20   0.00   27.9    78    2.3    47     3.6   99999.0    0.00 
 126    0:30   0.00   29.0    74    1.4    45     2.4   99999.0    0.00 
 126    0:40   0.00   29.8    72    0.8    43     2.4   99999.0    0.00 
 126    0:50   0.00   28.7    74    0.0     0     0.0   99999.0    0.00 
 126    1:00   0.00   27.8    77    0.0     0     0.0   99999.0    0.00 
 126    1:10   0.00   27.7    77    0.5    74     2.4   99999.0    0.00 
 126    1:20   0.00   27.4    78    0.2     3     1.8   99999.0    0.00 
 126    1:30   0.00   27.3    78    1.0    14     3.0   99999.0    0.00 
 126    1:40   0.00   27.2    78    0.5    25     1.8   99999.0    0.00 
 126    1:50   0.00   27.5    77    1.2   343     4.8   99999.0    0.00 
 126    2:00   0.00   26.7    79    1.9     3     4.2   99999.0    0.00 
 126    2:10   0.00   26.8    80    2.5    66     8.4   99999.0    0.00 
 126    2:20   0.00   26.9    78    2.6     6     5.4   99999.0    0.00 
 126    2:30   0.00   26.1    80    2.4    68     6.0   99999.0    0.00 
 126    2:40   0.00   26.4    80    1.2    75     4.2   99999.0    0.00 
 126    2:50   0.00   26.9    79    0.0     0     0.0   99999.0    0.00 
 126    3:00   0.00   27.2    78    0.3   232     2.4   99999.0    0.00 
 126    3:10   0.00   26.4    79    0.1    30     1.8   99999.0    0.00 
 126    3:20   0.00   25.8    81    0.1    14     1.8   99999.0    0.00 
 126    3:30   0.00   26.0    81    0.1    60     1.2   99999.0    0.00 
 126    3:40   0.00   26.1    80    0.1   108     1.8   99999.0    0.00 
 126    3:50   0.00   26.0    81    0.5    56     2.4   99999.0    0.00 
 126    4:00   0.00   25.9    81    0.5    27     3.0   99999.0    0.00 
 126    4:10   0.00   26.0    81    0.7    46     4.2   99999.0    0.00 
 126    4:20   0.00   25.8    82    0.8    59     3.6   99999.0    0.00 
 126    4:30   0.00   25.1    81    1.6    36     4.8   99999.0    0.00 
 126    4:40   0.00   24.5    84    1.3     3     3.0   99999.0    0.00 
 126    4:50   0.00   24.8    83    0.1   133     2.4   99999.0    0.00 
 126    5:00   0.00   24.5    84    0.0     0     0.0   99999.0    0.00 
 126    5:10   0.00   24.6    85    0.2   235     2.4   99999.0    0.00 
 126    5:20   0.01   24.6    84    0.8    21     3.0   99999.0    0.00 

Return to San Antonio, Valles Caldera graphs page.


Western Regional Climate Center,wrcc@dri.edu